Terminal Aerodrome Forecast
Issued by NWS

Home | Current Version | Previous Version | Graphics & Text | Print | Product List | Glossary On
Versions: 1 2 3 4 5 6 7 8 9 10 11 12 13 14 15 16 17 18
000
FTUS43 KMPX 292300
TAFRNH
TAF
KRNH 292333Z 3000/3024 24005KT P6SM BKN024
      TEMPO 3001/3002 SCT024
     FM300200 18003KT P6SM SCT024 BKN250
     FM300800 17004KT P6SM SCT050 OVC100
     FM301500 30006KT P6SM VCSH SCT030 OVC050
     FM301900 33012KT P6SM BKN030 OVC050=

USA.gov is the U.S. government's official web portal to all federal, state and local government web resources and services.